sensor_id;sensor_type;location;lat;lon;timestamp;P1;durP1;ratioP1;P2;durP2;ratioP2
7719;SDS011;3902;49.474;8.616;2023-03-11T00:00:36;2.13;;;1.50;;
7719;SDS011;3902;49.474;8.616;2023-03-11T00:03:04;2.20;;;1.40;;
7719;SDS011;3902;49.474;8.616;2023-03-11T00:05:32;3.80;;;1.67;;
7719;SDS011;3902;49.474;8.616;2023-03-11T00:07:59;2.40;;;1.50;;
7719;SDS011;3902;49.474;8.616;2023-03-11T00:10:26;4.13;;;1.77;;
7719;SDS011;3902;49.474;8.616;2023-03-11T00:12:55;2.73;;;1.60;;
7719;SDS011;3902;49.474;8.616;2023-03-11T00:15:21;3.53;;;1.50;;
7719;SDS011;3902;49.474;8.616;2023-03-11T00:17:47;3.73;;;1.90;;
7719;SDS011;3902;49.474;8.616;2023-03-11T00:20:24;2.73;;;1.50;;
7719;SDS011;3902;49.474;8.616;2023-03-11T00:22:54;3.87;;;2.23;;
7719;SDS011;3902;49.474;8.616;2023-03-11T00:25:21;3.10;;;1.70;;
7719;SDS011;3902;49.474;8.616;2023-03-11T00:27:48;3.50;;;1.90;;
7719;SDS011;3902;49.474;8.616;2023-03-11T00:30:14;5.40;;;1.83;;
7719;SDS011;3902;49.474;8.616;2023-03-11T00:32:41;5.10;;;1.70;;
7719;SDS011;3902;49.474;8.616;2023-03-11T00:35:07;2.77;;;1.60;;
7719;SDS011;3902;49.474;8.616;2023-03-11T00:37:36;3.23;;;1.57;;
7719;SDS011;3902;49.474;8.616;2023-03-11T00:40:01;7.80;;;2.17;;
7719;SDS011;3902;49.474;8.616;2023-03-11T00:42:32;3.07;;;1.90;;
7719;SDS011;3902;49.474;8.616;2023-03-11T00:44:58;3.43;;;1.53;;
7719;SDS011;3902;49.474;8.616;2023-03-11T00:47:23;2.50;;;1.50;;
7719;SDS011;3902;49.474;8.616;2023-03-11T00:49:48;3.20;;;1.37;;
7719;SDS011;3902;49.474;8.616;2023-03-11T00:52:14;3.80;;;1.40;;
7719;SDS011;3902;49.474;8.616;2023-03-11T00:54:39;2.77;;;1.27;;
7719;SDS011;3902;49.474;8.616;2023-03-11T00:57:05;3.90;;;1.10;;
7719;SDS011;3902;49.474;8.616;2023-03-11T00:59:30;2.23;;;1.10;;
7719;SDS011;3902;49.474;8.616;2023-03-11T01:01:58;2.40;;;1.17;;
7719;SDS011;3902;49.474;8.616;2023-03-11T01:04:24;2.43;;;1.33;;
7719;SDS011;3902;49.474;8.616;2023-03-11T01:06:49;3.53;;;1.30;;
7719;SDS011;3902;49.474;8.616;2023-03-11T01:09:15;3.50;;;1.33;;
7719;SDS011;3902;49.474;8.616;2023-03-11T01:11:40;3.83;;;1.40;;
7719;SDS011;3902;49.474;8.616;2023-03-11T01:14:06;3.33;;;1.30;;
7719;SDS011;3902;49.474;8.616;2023-03-11T01:16:31;3.67;;;1.60;;
7719;SDS011;3902;49.474;8.616;2023-03-11T01:18:57;2.23;;;1.40;;
7719;SDS011;3902;49.474;8.616;2023-03-11T01:21:23;4.13;;;1.60;;
7719;SDS011;3902;49.474;8.616;2023-03-11T01:23:48;1.87;;;1.40;;
7719;SDS011;3902;49.474;8.616;2023-03-11T01:26:14;2.97;;;1.50;;
7719;SDS011;3902;49.474;8.616;2023-03-11T01:28:39;3.90;;;1.57;;
7719;SDS011;3902;49.474;8.616;2023-03-11T01:31:05;5.00;;;1.50;;
7719;SDS011;3902;49.474;8.616;2023-03-11T01:33:30;5.43;;;1.40;;
7719;SDS011;3902;49.474;8.616;2023-03-11T01:35:56;2.77;;;1.43;;
7719;SDS011;3902;49.474;8.616;2023-03-11T01:38:22;2.83;;;1.60;;
7719;SDS011;3902;49.474;8.616;2023-03-11T01:40:48;4.73;;;1.50;;
7719;SDS011;3902;49.474;8.616;2023-03-11T01:46:24;2.47;;;1.30;;
7719;SDS011;3902;49.474;8.616;2023-03-11T01:49:02;2.70;;;1.43;;
7719;SDS011;3902;49.474;8.616;2023-03-11T01:51:30;4.23;;;2.00;;
7719;SDS011;3902;49.474;8.616;2023-03-11T01:54:03;4.97;;;1.60;;
7719;SDS011;3902;49.474;8.616;2023-03-11T01:56:32;3.53;;;1.73;;
7719;SDS011;3902;49.474;8.616;2023-03-11T01:58:59;4.60;;;1.97;;
7719;SDS011;3902;49.474;8.616;2023-03-11T02:01:25;7.00;;;2.30;;
7719;SDS011;3902;49.474;8.616;2023-03-11T02:03:50;4.03;;;1.70;;
7719;SDS011;3902;49.474;8.616;2023-03-11T02:06:20;6.77;;;1.80;;
7719;SDS011;3902;49.474;8.616;2023-03-11T02:08:47;4.63;;;1.47;;
7719;SDS011;3902;49.474;8.616;2023-03-11T02:11:18;5.43;;;1.67;;
7719;SDS011;3902;49.474;8.616;2023-03-11T02:13:51;3.47;;;1.30;;
7719;SDS011;3902;49.474;8.616;2023-03-11T02:16:20;2.50;;;1.53;;
7719;SDS011;3902;49.474;8.616;2023-03-11T02:18:45;3.33;;;1.30;;
7719;SDS011;3902;49.474;8.616;2023-03-11T02:21:24;3.00;;;1.30;;
7719;SDS011;3902;49.474;8.616;2023-03-11T02:29:12;1.67;;;1.43;;
7719;SDS011;3902;49.474;8.616;2023-03-11T02:31:38;3.70;;;1.50;;
7719;SDS011;3902;49.474;8.616;2023-03-11T02:34:07;4.47;;;1.80;;
7719;SDS011;3902;49.474;8.616;2023-03-11T02:36:40;2.43;;;1.33;;
7719;SDS011;3902;49.474;8.616;2023-03-11T02:39:07;4.87;;;1.50;;
7719;SDS011;3902;49.474;8.616;2023-03-11T02:41:34;3.33;;;1.63;;
7719;SDS011;3902;49.474;8.616;2023-03-11T02:44:02;3.07;;;1.43;;
7719;SDS011;3902;49.474;8.616;2023-03-11T02:46:30;5.07;;;1.73;;
7719;SDS011;3902;49.474;8.616;2023-03-11T02:48:56;4.23;;;1.70;;
7719;SDS011;3902;49.474;8.616;2023-03-11T02:51:23;4.67;;;1.60;;
7719;SDS011;3902;49.474;8.616;2023-03-11T02:53:54;3.33;;;1.57;;
7719;SDS011;3902;49.474;8.616;2023-03-11T02:56:23;5.07;;;1.50;;
7719;SDS011;3902;49.474;8.616;2023-03-11T02:58:49;7.80;;;2.27;;
7719;SDS011;3902;49.474;8.616;2023-03-11T03:01:14;5.40;;;1.90;;
7719;SDS011;3902;49.474;8.616;2023-03-11T03:03:40;3.03;;;1.40;;
7719;SDS011;3902;49.474;8.616;2023-03-11T03:06:06;3.23;;;1.40;;
7719;SDS011;3902;49.474;8.616;2023-03-11T03:08:31;3.93;;;1.90;;
7719;SDS011;3902;49.474;8.616;2023-03-11T03:10:57;4.10;;;1.43;;
7719;SDS011;3902;49.474;8.616;2023-03-11T03:13:24;3.90;;;1.67;;
7719;SDS011;3902;49.474;8.616;2023-03-11T03:15:50;4.53;;;1.40;;
7719;SDS011;3902;49.474;8.616;2023-03-11T03:18:16;3.13;;;1.60;;
7719;SDS011;3902;49.474;8.616;2023-03-11T03:20:41;4.50;;;1.57;;
7719;SDS011;3902;49.474;8.616;2023-03-11T03:23:07;4.30;;;1.70;;
7719;SDS011;3902;49.474;8.616;2023-03-11T03:25:33;2.30;;;1.40;;
7719;SDS011;3902;49.474;8.616;2023-03-11T03:27:59;3.93;;;1.53;;
7719;SDS011;3902;49.474;8.616;2023-03-11T03:30:24;6.33;;;2.30;;
7719;SDS011;3902;49.474;8.616;2023-03-11T03:32:50;3.47;;;1.67;;
7719;SDS011;3902;49.474;8.616;2023-03-11T03:35:15;3.50;;;1.40;;
7719;SDS011;3902;49.474;8.616;2023-03-11T03:37:41;2.50;;;1.70;;
7719;SDS011;3902;49.474;8.616;2023-03-11T03:40:06;4.00;;;1.60;;
7719;SDS011;3902;49.474;8.616;2023-03-11T03:42:34;2.70;;;1.50;;
7719;SDS011;3902;49.474;8.616;2023-03-11T03:45:00;3.60;;;1.63;;
7719;SDS011;3902;49.474;8.616;2023-03-11T03:47:27;5.20;;;1.90;;
7719;SDS011;3902;49.474;8.616;2023-03-11T03:49:52;3.53;;;1.70;;
7719;SDS011;3902;49.474;8.616;2023-03-11T03:52:18;4.40;;;1.53;;
7719;SDS011;3902;49.474;8.616;2023-03-11T03:54:43;3.90;;;2.20;;
7719;SDS011;3902;49.474;8.616;2023-03-11T03:57:09;5.03;;;1.70;;
7719;SDS011;3902;49.474;8.616;2023-03-11T03:59:34;6.33;;;1.90;;
7719;SDS011;3902;49.474;8.616;2023-03-11T04:02:00;3.83;;;1.80;;
7719;SDS011;3902;49.474;8.616;2023-03-11T04:04:25;2.87;;;1.43;;
7719;SDS011;3902;49.474;8.616;2023-03-11T04:06:51;3.03;;;1.70;;
7719;SDS011;3902;49.474;8.616;2023-03-11T04:09:17;3.67;;;1.90;;
7719;SDS011;3902;49.474;8.616;2023-03-11T04:11:43;5.97;;;1.77;;
7719;SDS011;3902;49.474;8.616;2023-03-11T04:14:09;2.50;;;1.40;;
7719;SDS011;3902;49.474;8.616;2023-03-11T04:16:34;3.93;;;1.60;;
7719;SDS011;3902;49.474;8.616;2023-03-11T04:19:00;3.30;;;1.70;;
7719;SDS011;3902;49.474;8.616;2023-03-11T04:21:26;2.30;;;1.30;;
7719;SDS011;3902;49.474;8.616;2023-03-11T04:23:51;4.33;;;1.70;;
7719;SDS011;3902;49.474;8.616;2023-03-11T04:26:17;2.47;;;1.83;;
7719;SDS011;3902;49.474;8.616;2023-03-11T04:28:42;4.60;;;1.63;;
7719;SDS011;3902;49.474;8.616;2023-03-11T04:31:08;4.23;;;1.70;;
7719;SDS011;3902;49.474;8.616;2023-03-11T04:33:33;4.10;;;2.00;;
7719;SDS011;3902;49.474;8.616;2023-03-11T04:35:59;4.40;;;1.63;;
7719;SDS011;3902;49.474;8.616;2023-03-11T04:38:29;5.23;;;1.60;;
7719;SDS011;3902;49.474;8.616;2023-03-11T04:40:58;4.83;;;1.93;;
7719;SDS011;3902;49.474;8.616;2023-03-11T04:43:27;3.70;;;1.50;;
7719;SDS011;3902;49.474;8.616;2023-03-11T04:45:53;1.97;;;1.23;;
7719;SDS011;3902;49.474;8.616;2023-03-11T04:48:19;3.90;;;1.70;;
7719;SDS011;3902;49.474;8.616;2023-03-11T04:50:44;3.77;;;1.63;;
7719;SDS011;3902;49.474;8.616;2023-03-11T04:53:10;3.27;;;1.60;;
7719;SDS011;3902;49.474;8.616;2023-03-11T04:55:35;3.20;;;1.50;;
7719;SDS011;3902;49.474;8.616;2023-03-11T04:58:01;3.50;;;1.60;;
7719;SDS011;3902;49.474;8.616;2023-03-11T05:00:27;4.50;;;1.50;;
7719;SDS011;3902;49.474;8.616;2023-03-11T05:02:52;5.03;;;1.80;;
7719;SDS011;3902;49.474;8.616;2023-03-11T05:05:18;3.60;;;1.80;;
7719;SDS011;3902;49.474;8.616;2023-03-11T05:07:44;4.57;;;1.97;;
7719;SDS011;3902;49.474;8.616;2023-03-11T05:10:10;5.50;;;1.90;;
7719;SDS011;3902;49.474;8.616;2023-03-11T05:12:36;2.40;;;1.40;;
7719;SDS011;3902;49.474;8.616;2023-03-11T05:15:01;4.30;;;1.80;;
7719;SDS011;3902;49.474;8.616;2023-03-11T05:17:27;3.93;;;1.50;;
7719;SDS011;3902;49.474;8.616;2023-03-11T05:19:53;6.43;;;1.80;;
7719;SDS011;3902;49.474;8.616;2023-03-11T05:22:19;3.40;;;1.57;;
7719;SDS011;3902;49.474;8.616;2023-03-11T05:24:45;3.10;;;1.60;;
7719;SDS011;3902;49.474;8.616;2023-03-11T05:27:11;4.83;;;1.73;;
7719;SDS011;3902;49.474;8.616;2023-03-11T05:29:36;3.80;;;1.77;;
7719;SDS011;3902;49.474;8.616;2023-03-11T05:32:02;6.73;;;1.57;;
7719;SDS011;3902;49.474;8.616;2023-03-11T05:34:27;4.37;;;1.77;;
7719;SDS011;3902;49.474;8.616;2023-03-11T05:36:53;3.17;;;1.60;;
7719;SDS011;3902;49.474;8.616;2023-03-11T05:39:19;5.00;;;2.00;;
7719;SDS011;3902;49.474;8.616;2023-03-11T05:41:44;2.73;;;1.57;;
7719;SDS011;3902;49.474;8.616;2023-03-11T05:44:10;5.37;;;2.10;;
7719;SDS011;3902;49.474;8.616;2023-03-11T05:46:36;4.97;;;2.27;;
7719;SDS011;3902;49.474;8.616;2023-03-11T05:49:01;4.67;;;1.80;;
7719;SDS011;3902;49.474;8.616;2023-03-11T05:51:27;2.53;;;1.60;;
7719;SDS011;3902;49.474;8.616;2023-03-11T05:53:53;5.17;;;1.87;;
7719;SDS011;3902;49.474;8.616;2023-03-11T05:56:19;3.57;;;1.73;;
7719;SDS011;3902;49.474;8.616;2023-03-11T05:58:46;2.10;;;1.50;;
7719;SDS011;3902;49.474;8.616;2023-03-11T06:01:13;4.33;;;1.80;;
7719;SDS011;3902;49.474;8.616;2023-03-11T06:03:40;2.80;;;1.67;;
7719;SDS011;3902;49.474;8.616;2023-03-11T06:06:07;4.33;;;1.80;;
7719;SDS011;3902;49.474;8.616;2023-03-11T06:08:33;3.93;;;1.73;;
7719;SDS011;3902;49.474;8.616;2023-03-11T06:11:03;3.53;;;1.60;;
7719;SDS011;3902;49.474;8.616;2023-03-11T06:13:33;3.50;;;1.63;;
7719;SDS011;3902;49.474;8.616;2023-03-11T06:15:59;4.27;;;2.00;;
7719;SDS011;3902;49.474;8.616;2023-03-11T06:18:25;4.40;;;2.00;;
7719;SDS011;3902;49.474;8.616;2023-03-11T06:20:51;4.40;;;1.70;;
7719;SDS011;3902;49.474;8.616;2023-03-11T06:23:18;4.27;;;2.00;;
7719;SDS011;3902;49.474;8.616;2023-03-11T06:25:43;5.10;;;1.80;;
7719;SDS011;3902;49.474;8.616;2023-03-11T06:28:11;2.80;;;1.40;;
7719;SDS011;3902;49.474;8.616;2023-03-11T06:30:36;3.20;;;1.60;;
7719;SDS011;3902;49.474;8.616;2023-03-11T06:33:02;2.63;;;1.50;;
7719;SDS011;3902;49.474;8.616;2023-03-11T06:35:27;5.20;;;1.80;;
7719;SDS011;3902;49.474;8.616;2023-03-11T06:37:53;4.50;;;2.00;;
7719;SDS011;3902;49.474;8.616;2023-03-11T06:40:18;3.40;;;2.10;;
7719;SDS011;3902;49.474;8.616;2023-03-11T06:42:46;4.30;;;1.80;;
7719;SDS011;3902;49.474;8.616;2023-03-11T06:45:13;3.00;;;1.80;;
7719;SDS011;3902;49.474;8.616;2023-03-11T06:47:38;5.80;;;2.77;;
7719;SDS011;3902;49.474;8.616;2023-03-11T06:50:04;5.33;;;2.50;;
7719;SDS011;3902;49.474;8.616;2023-03-11T06:52:33;5.33;;;2.50;;
7719;SDS011;3902;49.474;8.616;2023-03-11T06:54:58;5.30;;;2.90;;
7719;SDS011;3902;49.474;8.616;2023-03-11T06:57:24;7.10;;;3.03;;
7719;SDS011;3902;49.474;8.616;2023-03-11T06:59:50;4.30;;;2.87;;
7719;SDS011;3902;49.474;8.616;2023-03-11T07:02:16;8.50;;;3.00;;
7719;SDS011;3902;49.474;8.616;2023-03-11T07:04:41;5.60;;;3.00;;
7719;SDS011;3902;49.474;8.616;2023-03-11T07:07:07;4.90;;;2.77;;
7719;SDS011;3902;49.474;8.616;2023-03-11T07:09:32;8.13;;;2.57;;
7719;SDS011;3902;49.474;8.616;2023-03-11T07:11:58;4.23;;;2.50;;
7719;SDS011;3902;49.474;8.616;2023-03-11T07:14:23;4.97;;;2.60;;
7719;SDS011;3902;49.474;8.616;2023-03-11T07:16:49;9.30;;;3.00;;
7719;SDS011;3902;49.474;8.616;2023-03-11T07:19:14;7.00;;;2.70;;
7719;SDS011;3902;49.474;8.616;2023-03-11T07:21:40;4.17;;;2.27;;
7719;SDS011;3902;49.474;8.616;2023-03-11T07:24:06;5.57;;;2.43;;
7719;SDS011;3902;49.474;8.616;2023-03-11T07:26:32;6.03;;;2.30;;
7719;SDS011;3902;49.474;8.616;2023-03-11T07:28:59;3.80;;;1.83;;
7719;SDS011;3902;49.474;8.616;2023-03-11T07:31:27;6.67;;;2.13;;
7719;SDS011;3902;49.474;8.616;2023-03-11T07:33:59;3.90;;;2.00;;
7719;SDS011;3902;49.474;8.616;2023-03-11T07:36:26;4.13;;;2.10;;
7719;SDS011;3902;49.474;8.616;2023-03-11T07:38:53;5.53;;;2.70;;
7719;SDS011;3902;49.474;8.616;2023-03-11T07:41:22;4.97;;;2.57;;
7719;SDS011;3902;49.474;8.616;2023-03-11T07:43:48;4.40;;;2.50;;
7719;SDS011;3902;49.474;8.616;2023-03-11T07:46:14;4.37;;;2.27;;
7719;SDS011;3902;49.474;8.616;2023-03-11T07:48:42;3.90;;;2.57;;
7719;SDS011;3902;49.474;8.616;2023-03-11T07:51:10;4.10;;;2.10;;
7719;SDS011;3902;49.474;8.616;2023-03-11T07:53:37;9.07;;;2.70;;
7719;SDS011;3902;49.474;8.616;2023-03-11T07:56:07;5.13;;;2.40;;
7719;SDS011;3902;49.474;8.616;2023-03-11T07:58:34;4.30;;;2.50;;
7719;SDS011;3902;49.474;8.616;2023-03-11T08:01:13;4.73;;;2.30;;
7719;SDS011;3902;49.474;8.616;2023-03-11T08:03:40;5.37;;;2.53;;
7719;SDS011;3902;49.474;8.616;2023-03-11T08:06:20;3.37;;;2.00;;
7719;SDS011;3902;49.474;8.616;2023-03-11T08:08:48;7.70;;;2.30;;
7719;SDS011;3902;49.474;8.616;2023-03-11T08:11:14;11.63;;;2.53;;
7719;SDS011;3902;49.474;8.616;2023-03-11T08:13:41;7.20;;;2.60;;
7719;SDS011;3902;49.474;8.616;2023-03-11T08:16:09;5.63;;;3.30;;
7719;SDS011;3902;49.474;8.616;2023-03-11T08:18:35;5.13;;;2.90;;
7719;SDS011;3902;49.474;8.616;2023-03-11T08:21:05;5.80;;;2.60;;
7719;SDS011;3902;49.474;8.616;2023-03-11T08:23:31;6.17;;;2.60;;
7719;SDS011;3902;49.474;8.616;2023-03-11T08:25:57;5.47;;;2.00;;
7719;SDS011;3902;49.474;8.616;2023-03-11T08:28:23;5.03;;;2.50;;
7719;SDS011;3902;49.474;8.616;2023-03-11T08:30:48;5.80;;;2.10;;
7719;SDS011;3902;49.474;8.616;2023-03-11T08:33:14;5.33;;;2.53;;
7719;SDS011;3902;49.474;8.616;2023-03-11T08:35:39;6.13;;;2.10;;
7719;SDS011;3902;49.474;8.616;2023-03-11T08:38:05;6.80;;;2.30;;
7719;SDS011;3902;49.474;8.616;2023-03-11T08:40:31;4.07;;;2.37;;
7719;SDS011;3902;49.474;8.616;2023-03-11T08:42:56;4.87;;;2.13;;
7719;SDS011;3902;49.474;8.616;2023-03-11T08:45:22;10.20;;;2.10;;
7719;SDS011;3902;49.474;8.616;2023-03-11T08:47:47;4.30;;;2.33;;
7719;SDS011;3902;49.474;8.616;2023-03-11T08:50:14;3.63;;;1.90;;
7719;SDS011;3902;49.474;8.616;2023-03-11T08:52:41;2.57;;;1.70;;
7719;SDS011;3902;49.474;8.616;2023-03-11T08:55:07;5.53;;;1.80;;
7719;SDS011;3902;49.474;8.616;2023-03-11T08:57:35;3.70;;;1.67;;
7719;SDS011;3902;49.474;8.616;2023-03-11T09:00:02;5.30;;;2.27;;
7719;SDS011;3902;49.474;8.616;2023-03-11T09:02:28;2.83;;;1.70;;
7719;SDS011;3902;49.474;8.616;2023-03-11T09:04:54;3.27;;;2.00;;
7719;SDS011;3902;49.474;8.616;2023-03-11T09:07:19;4.37;;;1.93;;
7719;SDS011;3902;49.474;8.616;2023-03-11T09:09:45;3.17;;;1.70;;
7719;SDS011;3902;49.474;8.616;2023-03-11T09:12:10;4.40;;;1.93;;
7719;SDS011;3902;49.474;8.616;2023-03-11T09:14:39;4.70;;;1.80;;
7719;SDS011;3902;49.474;8.616;2023-03-11T09:17:05;4.50;;;2.10;;
7719;SDS011;3902;49.474;8.616;2023-03-11T09:19:32;6.10;;;1.60;;
7719;SDS011;3902;49.474;8.616;2023-03-11T09:22:01;5.60;;;1.87;;
7719;SDS011;3902;49.474;8.616;2023-03-11T09:24:28;3.20;;;1.80;;
7719;SDS011;3902;49.474;8.616;2023-03-11T09:26:54;2.40;;;1.60;;
7719;SDS011;3902;49.474;8.616;2023-03-11T09:29:19;3.90;;;1.50;;
7719;SDS011;3902;49.474;8.616;2023-03-11T09:31:45;4.27;;;1.53;;
7719;SDS011;3902;49.474;8.616;2023-03-11T09:34:11;2.67;;;1.80;;
7719;SDS011;3902;49.474;8.616;2023-03-11T09:36:39;3.40;;;1.63;;
7719;SDS011;3902;49.474;8.616;2023-03-11T09:39:04;4.97;;;2.07;;
7719;SDS011;3902;49.474;8.616;2023-03-11T09:41:48;2.27;;;1.50;;
7719;SDS011;3902;49.474;8.616;2023-03-11T09:44:27;3.30;;;1.53;;
7719;SDS011;3902;49.474;8.616;2023-03-11T09:52:41;4.20;;;1.50;;
7719;SDS011;3902;49.474;8.616;2023-03-11T09:58:02;2.40;;;1.23;;
7719;SDS011;3902;49.474;8.616;2023-03-11T10:00:33;4.50;;;1.67;;
7719;SDS011;3902;49.474;8.616;2023-03-11T10:03:00;3.73;;;1.60;;
7719;SDS011;3902;49.474;8.616;2023-03-11T10:05:27;2.70;;;1.60;;
7719;SDS011;3902;49.474;8.616;2023-03-11T10:08:04;3.70;;;1.57;;
7719;SDS011;3902;49.474;8.616;2023-03-11T10:10:42;4.53;;;1.70;;
7719;SDS011;3902;49.474;8.616;2023-03-11T10:13:21;3.10;;;1.40;;
7719;SDS011;3902;49.474;8.616;2023-03-11T10:16:07;2.63;;;1.50;;
7719;SDS011;3902;49.474;8.616;2023-03-11T10:18:48;3.83;;;1.60;;
7719;SDS011;3902;49.474;8.616;2023-03-11T10:21:38;2.27;;;1.30;;
7719;SDS011;3902;49.474;8.616;2023-03-11T10:27:07;2.40;;;1.30;;
7719;SDS011;3902;49.474;8.616;2023-03-11T10:29:44;2.50;;;1.47;;
7719;SDS011;3902;49.474;8.616;2023-03-11T10:32:28;9.13;;;2.00;;
7719;SDS011;3902;49.474;8.616;2023-03-11T10:35:14;2.80;;;1.33;;
7719;SDS011;3902;49.474;8.616;2023-03-11T10:37:47;2.73;;;1.70;;
7719;SDS011;3902;49.474;8.616;2023-03-11T10:42:50;7.23;;;1.50;;
7719;SDS011;3902;49.474;8.616;2023-03-11T10:45:17;3.30;;;1.80;;
7719;SDS011;3902;49.474;8.616;2023-03-11T10:47:44;3.17;;;1.10;;
7719;SDS011;3902;49.474;8.616;2023-03-11T10:50:12;3.20;;;1.40;;
7719;SDS011;3902;49.474;8.616;2023-03-11T10:55:31;2.40;;;1.50;;
7719;SDS011;3902;49.474;8.616;2023-03-11T10:58:03;3.40;;;1.63;;
7719;SDS011;3902;49.474;8.616;2023-03-11T11:00:30;4.30;;;1.40;;
7719;SDS011;3902;49.474;8.616;2023-03-11T11:02:56;3.40;;;1.10;;
7719;SDS011;3902;49.474;8.616;2023-03-11T11:08:03;2.70;;;1.37;;
7719;SDS011;3902;49.474;8.616;2023-03-11T11:10:31;2.63;;;1.40;;
7719;SDS011;3902;49.474;8.616;2023-03-11T11:15:37;4.20;;;1.53;;
7719;SDS011;3902;49.474;8.616;2023-03-11T11:18:27;3.10;;;1.93;;
7719;SDS011;3902;49.474;8.616;2023-03-11T11:23:38;4.27;;;1.73;;
7719;SDS011;3902;49.474;8.616;2023-03-11T11:26:27;2.87;;;1.80;;
7719;SDS011;3902;49.474;8.616;2023-03-11T11:31:37;4.00;;;2.00;;
7719;SDS011;3902;49.474;8.616;2023-03-11T11:34:26;6.10;;;1.70;;
7719;SDS011;3902;49.474;8.616;2023-03-11T11:36:55;5.43;;;1.60;;
7719;SDS011;3902;49.474;8.616;2023-03-11T11:39:22;1.97;;;1.50;;
7719;SDS011;3902;49.474;8.616;2023-03-11T11:41:51;3.40;;;1.83;;
7719;SDS011;3902;49.474;8.616;2023-03-11T11:44:20;2.70;;;1.47;;
7719;SDS011;3902;49.474;8.616;2023-03-11T11:46:54;3.87;;;1.90;;
7719;SDS011;3902;49.474;8.616;2023-03-11T11:49:26;6.10;;;1.93;;
7719;SDS011;3902;49.474;8.616;2023-03-11T11:54:46;2.83;;;1.50;;
7719;SDS011;3902;49.474;8.616;2023-03-11T11:57:26;4.23;;;1.80;;
7719;SDS011;3902;49.474;8.616;2023-03-11T11:59:52;5.07;;;1.47;;
7719;SDS011;3902;49.474;8.616;2023-03-11T12:03:22;5.87;;;2.10;;
7719;SDS011;3902;49.474;8.616;2023-03-11T12:05:16;2.77;;;1.63;;
7719;SDS011;3902;49.474;8.616;2023-03-11T12:10:36;2.23;;;1.50;;
7719;SDS011;3902;49.474;8.616;2023-03-11T12:18:41;3.63;;;1.53;;
7719;SDS011;3902;49.474;8.616;2023-03-11T12:23:54;2.10;;;1.30;;
7719;SDS011;3902;49.474;8.616;2023-03-11T12:26:30;2.03;;;1.20;;
7719;SDS011;3902;49.474;8.616;2023-03-11T12:29:06;3.57;;;1.60;;
7719;SDS011;3902;49.474;8.616;2023-03-11T12:31:44;2.80;;;1.50;;
7719;SDS011;3902;49.474;8.616;2023-03-11T12:34:11;2.43;;;1.53;;
7719;SDS011;3902;49.474;8.616;2023-03-11T12:36:40;3.23;;;1.50;;
7719;SDS011;3902;49.474;8.616;2023-03-11T12:39:18;3.87;;;1.80;;
7719;SDS011;3902;49.474;8.616;2023-03-11T12:42:13;3.30;;;1.50;;
7719;SDS011;3902;49.474;8.616;2023-03-11T12:44:40;2.70;;;1.60;;
7719;SDS011;3902;49.474;8.616;2023-03-11T12:49:32;4.43;;;1.73;;
7719;SDS011;3902;49.474;8.616;2023-03-11T12:57:49;2.30;;;1.63;;
7719;SDS011;3902;49.474;8.616;2023-03-11T13:02:55;1.80;;;1.40;;
7719;SDS011;3902;49.474;8.616;2023-03-11T13:05:49;1.70;;;1.40;;
7719;SDS011;3902;49.474;8.616;2023-03-11T13:09:10;1.97;;;1.30;;
7719;SDS011;3902;49.474;8.616;2023-03-11T13:11:25;2.17;;;1.40;;
7719;SDS011;3902;49.474;8.616;2023-03-11T13:16:42;2.27;;;1.47;;
7719;SDS011;3902;49.474;8.616;2023-03-11T13:21:56;2.93;;;1.30;;
7719;SDS011;3902;49.474;8.616;2023-03-11T13:37:35;3.63;;;2.10;;
7719;SDS011;3902;49.474;8.616;2023-03-11T13:40:31;1.87;;;1.10;;
7719;SDS011;3902;49.474;8.616;2023-03-11T13:43:01;3.33;;;1.70;;
7719;SDS011;3902;49.474;8.616;2023-03-11T13:45:30;1.50;;;1.17;;
7719;SDS011;3902;49.474;8.616;2023-03-11T13:48:04;2.47;;;1.57;;
7719;SDS011;3902;49.474;8.616;2023-03-11T13:50:39;2.13;;;1.33;;
7719;SDS011;3902;49.474;8.616;2023-03-11T13:53:16;4.17;;;1.73;;
7719;SDS011;3902;49.474;8.616;2023-03-11T13:55:46;2.70;;;1.47;;
7719;SDS011;3902;49.474;8.616;2023-03-11T13:58:18;4.13;;;1.50;;
7719;SDS011;3902;49.474;8.616;2023-03-11T14:00:57;2.33;;;1.30;;
7719;SDS011;3902;49.474;8.616;2023-03-11T14:03:25;5.47;;;2.20;;
7719;SDS011;3902;49.474;8.616;2023-03-11T14:05:59;2.80;;;1.73;;
7719;SDS011;3902;49.474;8.616;2023-03-11T14:08:28;4.00;;;1.50;;
7719;SDS011;3902;49.474;8.616;2023-03-11T14:13:39;1.73;;;1.37;;
7719;SDS011;3902;49.474;8.616;2023-03-11T14:18:44;1.67;;;1.37;;
7719;SDS011;3902;49.474;8.616;2023-03-11T14:21:16;2.00;;;1.50;;
7719;SDS011;3902;49.474;8.616;2023-03-11T14:23:47;4.03;;;1.87;;
7719;SDS011;3902;49.474;8.616;2023-03-11T14:28:45;2.27;;;1.60;;
7719;SDS011;3902;49.474;8.616;2023-03-11T14:34:01;2.70;;;1.70;;
7719;SDS011;3902;49.474;8.616;2023-03-11T14:37:32;3.20;;;1.90;;
7719;SDS011;3902;49.474;8.616;2023-03-11T14:40:20;3.33;;;2.17;;
7719;SDS011;3902;49.474;8.616;2023-03-11T14:42:48;2.80;;;1.50;;
7719;SDS011;3902;49.474;8.616;2023-03-11T14:45:17;4.13;;;1.83;;
7719;SDS011;3902;49.474;8.616;2023-03-11T14:47:46;3.57;;;1.53;;
7719;SDS011;3902;49.474;8.616;2023-03-11T14:50:22;2.30;;;1.67;;
7719;SDS011;3902;49.474;8.616;2023-03-11T15:00:39;2.17;;;1.60;;
7719;SDS011;3902;49.474;8.616;2023-03-11T15:03:25;1.57;;;1.30;;
7719;SDS011;3902;49.474;8.616;2023-03-11T15:05:56;5.63;;;2.00;;
7719;SDS011;3902;49.474;8.616;2023-03-11T15:08:27;7.23;;;2.07;;
7719;SDS011;3902;49.474;8.616;2023-03-11T15:11:17;3.13;;;1.53;;
7719;SDS011;3902;49.474;8.616;2023-03-11T15:13:45;2.50;;;1.60;;
7719;SDS011;3902;49.474;8.616;2023-03-11T15:16:31;2.30;;;1.50;;
7719;SDS011;3902;49.474;8.616;2023-03-11T15:19:43;2.17;;;1.50;;
7719;SDS011;3902;49.474;8.616;2023-03-11T15:21:46;3.13;;;1.40;;
7719;SDS011;3902;49.474;8.616;2023-03-11T15:24:20;3.10;;;1.53;;
7719;SDS011;3902;49.474;8.616;2023-03-11T15:26:54;2.17;;;1.40;;
7719;SDS011;3902;49.474;8.616;2023-03-11T15:29:30;3.63;;;1.30;;
7719;SDS011;3902;49.474;8.616;2023-03-11T15:31:58;4.70;;;1.40;;
7719;SDS011;3902;49.474;8.616;2023-03-11T15:34:25;2.43;;;1.50;;
7719;SDS011;3902;49.474;8.616;2023-03-11T15:36:56;2.80;;;1.43;;
7719;SDS011;3902;49.474;8.616;2023-03-11T15:39:45;2.33;;;1.60;;
7719;SDS011;3902;49.474;8.616;2023-03-11T15:42:18;1.97;;;1.70;;
7719;SDS011;3902;49.474;8.616;2023-03-11T15:45:03;2.70;;;1.60;;
7719;SDS011;3902;49.474;8.616;2023-03-11T15:47:45;4.10;;;1.83;;
7719;SDS011;3902;49.474;8.616;2023-03-11T15:52:52;3.00;;;1.70;;
7719;SDS011;3902;49.474;8.616;2023-03-11T15:55:19;3.87;;;1.63;;
7719;SDS011;3902;49.474;8.616;2023-03-11T15:57:46;2.10;;;1.40;;
7719;SDS011;3902;49.474;8.616;2023-03-11T16:00:14;2.53;;;1.50;;
7719;SDS011;3902;49.474;8.616;2023-03-11T16:02:42;3.00;;;1.87;;
7719;SDS011;3902;49.474;8.616;2023-03-11T16:05:12;3.20;;;1.67;;
7719;SDS011;3902;49.474;8.616;2023-03-11T16:07:42;2.50;;;1.77;;
7719;SDS011;3902;49.474;8.616;2023-03-11T16:10:09;1.90;;;1.47;;
7719;SDS011;3902;49.474;8.616;2023-03-11T16:12:34;3.20;;;1.70;;
7719;SDS011;3902;49.474;8.616;2023-03-11T16:15:00;2.03;;;1.50;;
7719;SDS011;3902;49.474;8.616;2023-03-11T16:17:26;2.30;;;1.40;;
7719;SDS011;3902;49.474;8.616;2023-03-11T16:19:52;3.30;;;1.80;;
7719;SDS011;3902;49.474;8.616;2023-03-11T16:22:18;8.93;;;1.87;;
7719;SDS011;3902;49.474;8.616;2023-03-11T16:24:47;2.60;;;1.80;;
7719;SDS011;3902;49.474;8.616;2023-03-11T16:27:15;2.80;;;1.73;;
7719;SDS011;3902;49.474;8.616;2023-03-11T16:29:42;2.63;;;1.60;;
7719;SDS011;3902;49.474;8.616;2023-03-11T16:32:11;1.93;;;1.43;;
7719;SDS011;3902;49.474;8.616;2023-03-11T16:34:37;4.57;;;2.00;;
7719;SDS011;3902;49.474;8.616;2023-03-11T16:37:04;3.63;;;1.80;;
7719;SDS011;3902;49.474;8.616;2023-03-11T16:39:30;3.50;;;1.50;;
7719;SDS011;3902;49.474;8.616;2023-03-11T16:41:55;2.10;;;1.47;;
7719;SDS011;3902;49.474;8.616;2023-03-11T16:44:21;4.20;;;1.90;;
7719;SDS011;3902;49.474;8.616;2023-03-11T16:46:46;2.83;;;1.70;;
7719;SDS011;3902;49.474;8.616;2023-03-11T16:49:12;3.10;;;1.47;;
7719;SDS011;3902;49.474;8.616;2023-03-11T16:51:37;2.13;;;1.50;;
7719;SDS011;3902;49.474;8.616;2023-03-11T16:54:03;2.50;;;1.50;;
7719;SDS011;3902;49.474;8.616;2023-03-11T16:56:29;2.27;;;1.40;;
7719;SDS011;3902;49.474;8.616;2023-03-11T16:58:55;2.47;;;1.60;;
7719;SDS011;3902;49.474;8.616;2023-03-11T17:01:20;6.07;;;1.40;;
7719;SDS011;3902;49.474;8.616;2023-03-11T17:03:46;2.30;;;1.50;;
7719;SDS011;3902;49.474;8.616;2023-03-11T17:06:14;3.40;;;1.80;;